Time;durP1;ratioP1;P1;durP2;ratioP2;P2;SDS_P1;SDS_P2;PMS_P1;PMS_P2;Temp;Humidity;BMP_temperature;BMP_pressure;BME280_temperature;BME280_humidity;BME280_pressure;Samples;Min_cycle;Max_cycle;Signal;HPM_P1;HPM_P2
2021/12/05 00:19:54;;;;;;;30.33;15.93;;;0.30;88.80;;;;;;5031089;28;20037;-75
2021/12/05 00:22:31;;;;;;;30.10;14.90;;;0.30;87.50;;;;;;5029867;28;20026;-75
2021/12/05 00:25:00;;;;;;;34.17;17.00;;;0.30;86.30;;;;;;5030797;28;20074;-75
2021/12/05 00:27:32;;;;;;;33.60;16.20;;;0.30;86.30;;;;;;5029442;28;20038;-74
2021/12/05 00:33:35;;;;;;;33.55;16.10;;;0.30;86.40;;;;;;4989410;28;20117;-74
2021/12/05 00:46:41;;;;;;;31.40;15.18;;;0.40;85.10;;;;;;5030689;28;20034;-75
2021/12/05 00:49:39;;;;;;;29.02;13.65;;;0.40;84.80;;;;;;5030395;28;20479;-74
2021/12/05 00:55:09;;;;;;;30.30;14.80;;;0.30;85.10;;;;;;5030601;28;20036;-75
2021/12/05 01:04:00;;;;;;;28.73;14.27;;;0.30;84.60;;;;;;5030533;28;20036;-75
2021/12/05 01:16:29;;;;;;;31.45;14.80;;;0.30;87.10;;;;;;5030409;28;20033;-74
2021/12/05 01:18:55;;;;;;;28.35;14.02;;;0.20;87.20;;;;;;5029997;28;20061;-74
2021/12/05 01:21:23;;;;;;;32.45;16.45;;;0.30;87.20;;;;;;5028773;28;20049;-74
2021/12/05 01:24:11;;;;;;;25.83;15.50;;;0.20;87.20;;;;;;5028613;28;20025;-75
2021/12/05 01:26:52;;;;;;;36.60;16.73;;;0.20;87.00;;;;;;5028632;28;20017;-75
2021/12/05 01:32:13;;;;;;;35.25;16.00;;;0.30;84.80;;;;;;5030143;28;20086;-74
2021/12/05 01:34:59;;;;;;;32.38;15.02;;;0.30;84.10;;;;;;5029767;28;20026;-74
2021/12/05 01:37:40;;;;;;;27.15;12.90;;;0.40;83.40;;;;;;5029848;28;20047;-74
2021/12/05 01:43:35;;;;;;;30.35;14.07;;;0.40;83.70;;;;;;5029924;28;20112;-74
2021/12/05 01:59:14;;;;;;;30.85;15.02;;;0.40;82.10;;;;;;5033437;28;20113;-75
2021/12/05 02:10:38;;;;;;;36.55;15.70;;;0.50;83.10;;;;;;5033085;28;20600;-75
2021/12/05 02:15:55;;;;;;;30.33;13.85;;;0.50;81.00;;;;;;5033011;28;20472;-75
2021/12/05 02:42:37;;;;;;;27.90;13.95;;;0.70;83.00;;;;;;5032446;28;20052;-74
2021/12/05 02:45:06;;;;;;;26.77;13.35;;;0.70;83.30;;;;;;5031250;28;20033;-74
2021/12/05 02:47:33;;;;;;;20.02;9.30;;;0.70;84.10;;;;;;5030924;28;20025;-74
2021/12/05 02:50:01;;;;;;;16.30;8.35;;;0.70;85.10;;;;;;5032189;28;20455;-74
2021/12/05 02:52:32;;;;;;;14.15;8.90;;;0.70;88.80;;;;;;5032189;28;20074;-74
2021/12/05 02:55:10;;;;;;;16.70;8.93;;;0.70;92.30;;;;;;5030900;28;20029;-74
2021/12/05 03:00:17;;;;;;;14.95;8.18;;;0.60;99.90;;;;;;5032362;28;20079;-75
2021/12/05 03:02:46;;;;;;;16.83;8.05;;;0.70;99.90;;;;;;5030780;28;20025;-75
2021/12/05 03:05:16;;;;;;;11.27;6.75;;;0.60;99.90;;;;;;5030667;28;20489;-74
2021/12/05 03:07:46;;;;;;;12.00;7.75;;;0.60;99.90;;;;;;5030724;28;20048;-74
2021/12/05 03:10:13;;;;;;;13.02;6.60;;;0.60;99.90;;;;;;5030692;28;20493;-74
2021/12/05 03:12:39;;;;;;;13.43;7.88;;;0.50;99.90;;;;;;5031924;28;20053;-74
2021/12/05 03:15:09;;;;;;;10.63;6.68;;;0.50;99.90;;;;;;5030555;28;20465;-75
2021/12/05 03:17:35;;;;;;;11.82;7.03;;;0.50;99.90;;;;;;5030484;28;20030;-74
2021/12/05 03:20:02;;;;;;;11.55;6.78;;;0.50;99.90;;;;;;5031740;28;20033;-74
2021/12/05 03:22:27;;;;;;;9.57;6.70;;;0.50;99.90;;;;;;5032049;28;20024;-75
2021/12/05 03:24:53;;;;;;;11.57;6.40;;;0.50;99.90;;;;;;5030367;28;20021;-75
2021/12/05 03:27:18;;;;;;;11.27;6.57;;;0.40;99.90;;;;;;5030407;28;20467;-74
2021/12/05 03:29:44;;;;;;;11.50;6.93;;;0.40;99.90;;;;;;5030356;28;20120;-75
2021/12/05 03:32:10;;;;;;;12.60;7.03;;;0.40;99.90;;;;;;5031644;28;20105;-75
2021/12/05 03:34:36;;;;;;;12.65;5.88;;;0.40;99.90;;;;;;5030302;28;20029;-74
2021/12/05 03:37:04;;;;;;;10.13;6.07;;;0.40;99.90;;;;;;5031563;28;20026;-74
2021/12/05 03:39:30;;;;;;;9.80;6.60;;;0.30;99.90;;;;;;5030229;28;20017;-75
2021/12/05 03:41:56;;;;;;;12.50;7.43;;;0.30;99.90;;;;;;5030221;28;20048;-74
2021/12/05 03:44:28;;;;;;;7.43;6.30;;;0.30;99.90;;;;;;5031219;28;20108;-75
2021/12/05 03:46:56;;;;;;;11.75;6.85;;;0.20;99.90;;;;;;5030015;28;20060;-75
2021/12/05 03:49:23;;;;;;;9.05;6.25;;;0.20;99.90;;;;;;5030004;28;20074;-75
2021/12/05 03:52:01;;;;;;;9.13;5.45;;;0.20;99.90;;;;;;5031297;28;20052;-75
2021/12/05 03:54:27;;;;;;;12.77;6.75;;;0.20;99.90;;;;;;5031243;28;20175;-75
2021/12/05 03:56:53;;;;;;;10.32;5.82;;;0.20;99.90;;;;;;5029957;28;20032;-75
2021/12/05 03:59:19;;;;;;;10.38;6.03;;;0.20;99.90;;;;;;5029850;28;20018;-75
2021/12/05 04:01:47;;;;;;;9.93;6.40;;;0.20;99.90;;;;;;5029930;28;20395;-75
2021/12/05 04:04:13;;;;;;;11.40;6.65;;;0.20;99.90;;;;;;5031068;28;20032;-75
2021/12/05 04:06:39;;;;;;;10.68;6.28;;;0.20;99.90;;;;;;5029769;28;20017;-75
2021/12/05 04:09:09;;;;;;;11.27;6.45;;;0.20;99.90;;;;;;5029668;28;20406;-75
2021/12/05 04:11:41;;;;;;;12.75;6.80;;;0.20;99.90;;;;;;5029800;28;20100;-75
2021/12/05 04:14:11;;;;;;;10.75;6.82;;;0.10;99.90;;;;;;5029718;28;20155;-75
2021/12/05 04:16:37;;;;;;;13.05;6.82;;;0.20;99.90;;;;;;5029116;28;20057;-75
2021/12/05 04:19:04;;;;;;;10.05;5.53;;;0.20;99.90;;;;;;5029583;28;20029;-74
2021/12/05 04:21:31;;;;;;;12.43;6.80;;;0.20;99.90;;;;;;5030820;28;20021;-75
2021/12/05 04:23:59;;;;;;;11.35;6.63;;;0.20;99.90;;;;;;5030775;28;20032;-75
2021/12/05 04:26:25;;;;;;;7.40;5.80;;;0.20;99.90;;;;;;5030773;28;20105;-74
2021/12/05 04:28:52;;;;;;;12.18;6.90;;;0.20;99.90;;;;;;5030621;28;20041;-74
2021/12/05 04:31:21;;;;;;;11.63;6.55;;;0.20;99.90;;;;;;5029432;28;20014;-75
2021/12/05 04:33:47;;;;;;;11.90;6.80;;;0.20;99.90;;;;;;5030560;28;20420;-74
2021/12/05 04:36:13;;;;;;;14.52;7.00;;;0.20;99.90;;;;;;5030587;28;20034;-74
2021/12/05 04:38:39;;;;;;;10.98;6.53;;;0.20;99.90;;;;;;5029276;28;20032;-74
2021/12/05 04:41:05;;;;;;;9.88;6.45;;;0.20;99.90;;;;;;5029309;28;20029;-75
2021/12/05 04:43:37;;;;;;;9.57;5.90;;;0.20;99.90;;;;;;5029200;28;20037;-74
2021/12/05 04:46:06;;;;;;;11.80;6.20;;;0.20;99.90;;;;;;5030478;28;20028;-74
2021/12/05 04:48:31;;;;;;;10.30;6.68;;;0.20;99.90;;;;;;5029097;28;20033;-74
2021/12/05 04:50:58;;;;;;;9.63;6.88;;;0.10;99.90;;;;;;5029208;28;20416;-74
2021/12/05 04:53:26;;;;;;;10.63;7.13;;;0.10;99.90;;;;;;5029073;28;20028;-74
2021/12/05 04:55:52;;;;;;;8.73;5.90;;;0.10;99.90;;;;;;5030309;28;20017;-74
2021/12/05 04:58:17;;;;;;;10.63;6.47;;;0.00;99.90;;;;;;5030344;28;20036;-75
2021/12/05 05:00:45;;;;;;;11.10;6.95;;;0.00;99.90;;;;;;5030165;28;20029;-74
2021/12/05 05:03:12;;;;;;;11.43;7.40;;;-0.10;99.90;;;;;;5029018;28;20030;-74
2021/12/05 05:05:41;;;;;;;13.10;7.20;;;-0.10;99.90;;;;;;5030172;28;20031;-75
2021/12/05 05:08:07;;;;;;;13.63;6.88;;;0.00;99.90;;;;;;5030105;28;20030;-74
2021/12/05 05:10:33;;;;;;;11.30;6.93;;;-0.10;99.90;;;;;;5028894;28;20587;-75
2021/12/05 05:12:59;;;;;;;12.63;7.43;;;-0.10;99.90;;;;;;5045463;28;20063;-74
2021/12/05 05:15:29;;;;;;;12.80;8.40;;;-0.10;99.90;;;;;;5028704;28;20049;-75
2021/12/05 05:17:57;;;;;;;13.95;8.63;;;-0.10;99.90;;;;;;5028865;28;20090;-74
2021/12/05 05:20:35;;;;;;;12.70;6.80;;;-0.10;99.90;;;;;;5028719;28;20033;-75
2021/12/05 05:23:23;;;;;;;11.02;6.68;;;-0.20;99.90;;;;;;5029086;28;20049;-74
2021/12/05 05:28:56;;;;;;;12.80;7.45;;;-0.20;99.90;;;;;;5030461;28;20056;-74
2021/12/05 05:42:37;;;;;;;13.65;7.50;;;-0.40;99.90;;;;;;5053295;28;20118;-74
2021/12/05 05:50:16;;;;;;;11.95;8.40;;;-0.40;99.90;;;;;;5053428;28;20089;-74
2021/12/05 05:52:42;;;;;;;12.75;8.52;;;-0.40;99.90;;;;;;5051761;28;20124;-75
2021/12/05 05:55:09;;;;;;;15.93;9.63;;;-0.40;99.90;;;;;;5052981;28;20064;-74
2021/12/05 06:00:12;;;;;;;14.15;8.27;;;-0.40;99.90;;;;;;5052829;28;20037;-75
2021/12/05 06:05:22;;;;;;;20.45;11.18;;;-0.40;99.90;;;;;;5053046;28;20513;-74
2021/12/05 06:07:48;;;;;;;15.40;10.25;;;-0.40;99.90;;;;;;5051507;28;20033;-75
2021/12/05 06:10:21;;;;;;;20.17;9.85;;;-0.40;99.90;;;;;;5051451;27;20081;-74
2021/12/05 06:12:47;;;;;;;18.70;10.43;;;-0.40;99.90;;;;;;5051563;28;20043;-74
2021/12/05 06:15:16;;;;;;;19.90;10.82;;;-0.40;99.90;;;;;;5051434;28;20036;-75
2021/12/05 06:17:42;;;;;;;25.35;12.57;;;-0.50;99.90;;;;;;5051276;27;20553;-74
2021/12/05 06:20:12;;;;;;;25.00;13.45;;;-0.50;99.90;;;;;;5052556;28;20029;-74
2021/12/05 06:22:37;;;;;;;19.33;11.40;;;-0.50;99.90;;;;;;5052567;28;20029;-74
2021/12/05 06:25:06;;;;;;;20.25;11.82;;;-0.60;99.90;;;;;;5051239;28;20512;-74
2021/12/05 06:27:32;;;;;;;21.95;11.40;;;-0.50;99.90;;;;;;5052475;28;20110;-75
2021/12/05 06:30:08;;;;;;;17.80;11.80;;;-0.50;99.90;;;;;;5051185;28;20063;-74
2021/12/05 06:38:03;;;;;;;15.73;10.10;;;-0.50;99.90;;;;;;5052674;28;20036;-75
2021/12/05 06:46:00;;;;;;;20.70;10.60;;;-0.40;99.90;;;;;;5052480;28;20036;-74
2021/12/05 06:46:05;;;;;;;21.20;11.38;;;-0.40;99.90;;;;;;5051593;28;20095;-74
2021/12/05 06:48:30;;;;;;;20.10;11.55;;;-0.40;99.90;;;;;;5050899;27;20037;-74
2021/12/05 06:50:56;;;;;;;23.45;11.80;;;-0.40;99.90;;;;;;5050947;28;20024;-75
2021/12/05 06:53:22;;;;;;;19.88;10.70;;;-0.30;99.90;;;;;;5052007;28;20527;-75
2021/12/05 06:55:47;;;;;;;20.65;11.00;;;-0.30;99.90;;;;;;5050719;27;20024;-75
2021/12/05 06:58:13;;;;;;;18.40;11.52;;;-0.30;99.90;;;;;;5051785;28;20021;-75
2021/12/05 07:00:39;;;;;;;22.10;11.57;;;-0.20;99.90;;;;;;5050668;27;20378;-75
2021/12/05 07:03:07;;;;;;;21.15;11.95;;;-0.20;99.90;;;;;;5050708;28;20021;-74
2021/12/05 07:08:19;;;;;;;22.35;11.73;;;-0.20;99.90;;;;;;5135516;27;20074;-74
2021/12/05 07:40:28;;;;;;;32.35;18.33;;;0.00;99.90;;;;;;5127189;27;20384;-75
2021/12/05 07:43:04;;;;;;;40.75;18.48;;;0.10;99.90;;;;;;5045546;28;20028;-74
2021/12/05 07:45:36;;;;;;;39.00;19.58;;;0.10;99.90;;;;;;5049898;28;20029;-74
2021/12/05 07:48:14;;;;;;;33.03;17.60;;;0.20;99.90;;;;;;5051234;28;20646;-74
2021/12/05 07:50:57;;;;;;;24.85;13.52;;;0.20;99.90;;;;;;5050864;28;20461;-74
2021/12/05 07:53:29;;;;;;;24.90;15.27;;;0.30;99.90;;;;;;5049979;28;20060;-75
2021/12/05 07:56:00;;;;;;;22.50;13.30;;;0.30;99.90;;;;;;5049958;28;20036;-75
2021/12/05 08:01:16;;;;;;;21.58;11.82;;;0.30;99.90;;;;;;5045871;28;20038;-75
2021/12/05 08:14:43;;;;;;;45.03;23.10;;;0.60;99.90;;;;;;5029861;28;20037;-75
2021/12/05 08:17:17;;;;;;;33.08;19.80;;;0.60;99.90;;;;;;5027676;27;20112;-76
2021/12/05 08:19:42;;;;;;;39.72;23.15;;;0.70;99.90;;;;;;5027609;28;20040;-75
2021/12/05 08:22:08;;;;;;;57.42;26.50;;;0.70;99.90;;;;;;5029606;28;20030;-75
2021/12/05 08:24:37;;;;;;;51.85;26.65;;;0.70;99.90;;;;;;5027871;28;20049;-74
2021/12/05 08:27:05;;;;;;;61.08;32.33;;;0.70;99.90;;;;;;5028224;28;20032;-75
2021/12/05 08:29:40;;;;;;;35.03;22.27;;;0.80;99.90;;;;;;5028914;27;20025;-75
2021/12/05 08:32:18;;;;;;;30.63;19.42;;;0.80;99.90;;;;;;5030357;28;20218;-75
2021/12/05 08:34:55;;;;;;;31.25;18.08;;;0.80;99.90;;;;;;5029119;28;20090;-75
2021/12/05 08:43:17;;;;;;;32.15;18.38;;;0.90;99.90;;;;;;5030615;28;20036;-75
2021/12/05 08:45:57;;;;;;;24.10;13.73;;;0.90;99.90;;;;;;5030222;28;20082;-75
2021/12/05 09:24:33;;;;;;;28.30;16.10;;;1.10;99.90;;;;;;5154429;27;20384;-74
2021/12/05 10:02:08;;;;;;;40.35;19.70;;;0.80;99.90;;;;;;5154481;27;20135;-75
2021/12/05 10:15:17;;;;;;;35.83;19.67;;;0.80;99.90;;;;;;5153814;27;20086;-75
2021/12/05 10:38:50;;;;;;;44.35;24.05;;;0.50;99.90;;;;;;5046170;28;20078;-74
2021/12/05 10:43:52;;;;;;;46.42;23.50;;;0.60;99.90;;;;;;5052413;28;20094;-74
2021/12/05 10:46:20;;;;;;;46.83;24.98;;;0.60;99.90;;;;;;5050898;28;20017;-75
2021/12/05 10:48:53;;;;;;;47.60;24.38;;;0.60;99.90;;;;;;5050738;28;20466;-75
2021/12/05 10:51:27;;;;;;;52.72;26.10;;;0.60;99.90;;;;;;5052161;28;20058;-74
2021/12/05 10:53:54;;;;;;;60.35;28.23;;;0.60;99.90;;;;;;5051831;28;20458;-75
2021/12/05 10:56:26;;;;;;;50.45;27.00;;;0.60;99.90;;;;;;5049987;28;20021;-74
2021/12/05 10:59:13;;;;;;;51.78;27.40;;;0.60;99.90;;;;;;5051591;28;20025;-74
2021/12/05 11:01:56;;;;;;;51.13;27.30;;;0.60;99.90;;;;;;5050568;28;20033;-75
2021/12/05 11:04:29;;;;;;;49.92;26.92;;;0.60;99.90;;;;;;5050703;28;20032;-75
2021/12/05 11:06:55;;;;;;;;;;;0.60;99.90;;;;;;5067189;27;20026;-75
2021/12/05 11:09:24;;;;;;;55.40;27.17;;;0.60;99.90;;;;;;5073627;27;20019;-74
2021/12/05 11:12:11;;;;;;;46.47;25.92;;;0.60;99.90;;;;;;5047510;28;20530;-75
2021/12/05 11:14:41;;;;;;;53.55;28.23;;;0.60;99.90;;;;;;5050369;28;20036;-76
2021/12/05 11:17:14;;;;;;;56.10;26.75;;;0.60;99.90;;;;;;5050427;28;20029;-76
2021/12/05 11:19:52;;;;;;;54.00;27.92;;;0.60;99.90;;;;;;5051065;28;20043;-76
2021/12/05 11:22:19;;;;;;;54.97;28.30;;;0.70;99.90;;;;;;5050223;28;20539;-76
2021/12/05 11:24:54;;;;;;;55.85;27.45;;;0.70;99.90;;;;;;5051427;28;20013;-77
2021/12/05 11:27:35;;;;;;;61.63;28.85;;;0.70;99.90;;;;;;5082603;27;20098;-76
2021/12/05 11:30:13;;;;;;;59.03;29.95;;;0.70;99.90;;;;;;5146368;27;20019;-76
2021/12/05 11:32:56;;;;;;;57.50;28.67;;;0.70;99.90;;;;;;5090871;27;20032;-75
2021/12/05 11:35:30;;;;;;;58.42;27.67;;;0.70;99.90;;;;;;5106098;27;20531;-76
2021/12/05 11:38:11;;;;;;;63.00;28.17;;;0.70;99.90;;;;;;5094763;27;20027;-76
2021/12/05 11:41:05;;;;;;;53.42;27.95;;;0.70;99.90;;;;;;5103810;27;20025;-76
2021/12/05 11:43:33;;;;;;;53.88;27.35;;;0.70;99.90;;;;;;5097179;27;20078;-75
2021/12/05 11:46:07;;;;;;;54.63;27.17;;;0.60;99.90;;;;;;5097851;27;20551;-76
2021/12/05 11:49:13;;;;;;;48.83;26.20;;;0.60;99.90;;;;;;5100510;27;20035;-75
2021/12/05 11:51:52;;;;;;;53.22;26.95;;;0.60;99.90;;;;;;5086677;27;20036;-75
2021/12/05 11:54:26;;;;;;;53.45;28.63;;;0.70;99.90;;;;;;5154662;27;20011;-75
2021/12/05 11:56:55;;;;;;;53.67;28.23;;;0.60;99.90;;;;;;5154531;27;20021;-76
2021/12/05 11:59:44;;;;;;;61.53;29.92;;;0.70;99.90;;;;;;5154352;27;20027;-75
2021/12/05 12:02:36;;;;;;;57.17;28.52;;;0.70;99.90;;;;;;5118192;27;20477;-75
2021/12/05 12:05:09;;;;;;;57.78;30.17;;;0.70;99.90;;;;;;5050411;28;20087;-75
2021/12/05 12:07:40;;;;;;;56.60;31.30;;;0.70;99.90;;;;;;5049359;28;20032;-76
2021/12/05 12:10:17;;;;;;;77.13;39.92;;;0.70;99.90;;;;;;5049195;28;20024;-76
2021/12/05 12:12:53;;;;;;;111.32;58.92;;;0.70;99.90;;;;;;5050554;28;20018;-75
2021/12/05 12:15:20;;;;;;;80.82;40.08;;;0.70;99.90;;;;;;5106338;27;20021;-75
2021/12/05 12:17:47;;;;;;;60.38;30.13;;;0.70;99.90;;;;;;5090814;27;20063;-75
2021/12/05 12:20:19;;;;;;;62.88;32.00;;;0.70;99.90;;;;;;5106552;27;20550;-76
2021/12/05 12:22:45;;;;;;;62.75;33.05;;;0.70;99.90;;;;;;5098351;27;20028;-75
2021/12/05 12:25:15;;;;;;;59.90;32.17;;;0.80;99.90;;;;;;5099159;27;20011;-75
2021/12/05 12:27:43;;;;;;;60.35;29.95;;;0.80;99.90;;;;;;5104879;27;20030;-75
2021/12/05 12:30:10;;;;;;;55.97;31.75;;;0.80;99.90;;;;;;5103865;27;20025;-76
2021/12/05 12:32:42;;;;;;;58.35;32.25;;;0.80;99.90;;;;;;5095645;27;20551;-76
2021/12/05 12:35:10;;;;;;;63.80;34.88;;;0.80;99.90;;;;;;5099264;27;20015;-75
2021/12/05 12:37:57;;;;;;;60.45;29.75;;;0.80;99.90;;;;;;5088781;27;20066;-76
2021/12/05 12:40:37;;;;;;;62.10;31.67;;;0.80;99.90;;;;;;5028958;28;20029;-75
2021/12/05 12:43:04;;;;;;;63.97;33.22;;;0.80;99.90;;;;;;5029126;28;20029;-75
2021/12/05 12:45:40;;;;;;;60.85;33.10;;;0.80;99.90;;;;;;5029274;28;20100;-75
2021/12/05 12:48:12;;;;;;;61.72;33.88;;;0.80;99.90;;;;;;5044440;28;20036;-76
2021/12/05 12:50:51;;;;;;;62.72;34.25;;;0.80;99.90;;;;;;5047689;28;20025;-75
2021/12/05 12:53:30;;;;;;;64.93;31.80;;;0.80;99.90;;;;;;5047516;28;20482;-75
2021/12/05 12:56:18;;;;;;;61.13;33.67;;;0.80;99.90;;;;;;5047906;28;20423;-75
2021/12/05 12:58:48;;;;;;;50.70;27.88;;;0.80;99.90;;;;;;5049487;28;20032;-75
2021/12/05 13:12:40;;;;;;;52.58;26.60;;;0.90;99.90;;;;;;5092563;27;20387;-75
2021/12/05 13:15:18;;;;;;;47.45;28.17;;;0.90;99.90;;;;;;5096222;27;20029;-76
2021/12/05 13:17:54;;;;;;;55.80;29.83;;;0.80;99.90;;;;;;5095256;27;20052;-75
2021/12/05 13:20:29;;;;;;;56.58;29.98;;;0.90;99.90;;;;;;5107371;27;20125;-75
2021/12/05 13:23:20;;;;;;;54.10;30.02;;;0.90;99.90;;;;;;5072038;27;20135;-75
2021/12/05 13:26:15;;;;;;;56.20;29.10;;;0.90;99.90;;;;;;5045806;28;20185;-76
2021/12/05 13:29:10;;;;;;;55.08;30.23;;;0.80;99.90;;;;;;5044399;27;20128;-75
2021/12/05 13:31:44;;;;;;;56.65;29.23;;;0.80;99.90;;;;;;5064108;27;20025;-75
2021/12/05 13:34:28;;;;;;;65.18;32.85;;;0.80;99.90;;;;;;5072569;27;20027;-75
2021/12/05 13:36:53;;;;;;;61.25;32.85;;;0.90;99.90;;;;;;5057178;27;20032;-75
2021/12/05 13:39:38;;;;;;;61.90;32.85;;;0.80;99.90;;;;;;5073560;27;20018;-75
2021/12/05 13:42:22;;;;;;;67.05;36.05;;;0.80;99.90;;;;;;5075632;27;20059;-75
2021/12/05 13:45:04;;;;;;;63.83;35.33;;;0.80;99.90;;;;;;5065278;27;20124;-75
2021/12/05 13:48:05;;;;;;;63.28;32.38;;;0.80;99.90;;;;;;5080707;27;20043;-75
2021/12/05 13:50:42;;;;;;;65.60;34.78;;;0.90;99.90;;;;;;5087097;27;20053;-75
2021/12/05 13:53:08;;;;;;;54.33;30.25;;;0.90;99.90;;;;;;5085137;27;20029;-75
2021/12/05 13:55:36;;;;;;;65.15;34.20;;;0.90;99.90;;;;;;5066096;27;20045;-75
2021/12/05 13:58:19;;;;;;;59.15;33.67;;;0.90;99.90;;;;;;5141631;27;20096;-76
2021/12/05 14:01:09;;;;;;;64.65;34.42;;;0.90;99.90;;;;;;5077998;27;20498;-75
2021/12/05 14:03:46;;;;;;;60.42;32.72;;;0.90;99.90;;;;;;5097617;27;20058;-76
2021/12/05 14:06:34;;;;;;;57.30;30.42;;;0.90;99.90;;;;;;5154707;27;20091;-75
2021/12/05 14:09:22;;;;;;;50.97;28.52;;;0.90;99.90;;;;;;5154192;27;20042;-74
2021/12/05 14:11:52;;;;;;;54.78;27.98;;;0.90;99.90;;;;;;5154443;27;20025;-75
2021/12/05 14:14:21;;;;;;;53.22;29.40;;;0.90;99.90;;;;;;5155959;27;20480;-75
2021/12/05 14:16:49;;;;;;;56.28;31.13;;;0.80;99.90;;;;;;5141737;27;20486;-75
2021/12/05 14:19:19;;;;;;;53.13;28.45;;;0.80;99.90;;;;;;5049356;28;20382;-75
2021/12/05 14:21:48;;;;;;;50.13;28.88;;;0.80;99.90;;;;;;5046124;28;20062;-75
2021/12/05 14:24:15;;;;;;;65.53;36.22;;;0.80;99.90;;;;;;5045377;28;20036;-75
2021/12/05 14:26:41;;;;;;;121.50;60.10;;;0.80;99.90;;;;;;5045568;28;20155;-75
2021/12/05 14:29:13;;;;;;;177.48;82.80;;;0.80;99.90;;;;;;5046849;28;20553;-75
2021/12/05 14:31:45;;;;;;;113.95;58.58;;;0.80;99.90;;;;;;5055517;27;20025;-75
2021/12/05 14:34:11;;;;;;;97.82;52.30;;;0.80;99.90;;;;;;5096155;27;20106;-75
2021/12/05 14:36:50;;;;;;;97.97;50.67;;;0.80;99.90;;;;;;5095477;27;20043;-75
2021/12/05 14:39:21;;;;;;;71.75;43.30;;;0.90;99.90;;;;;;5094029;27;20045;-75
2021/12/05 14:41:50;;;;;;;76.35;38.50;;;0.90;99.90;;;;;;5096830;27;20007;-75
2021/12/05 14:44:17;;;;;;;71.18;36.47;;;0.90;99.90;;;;;;5093917;27;20057;-75
2021/12/05 14:47:12;;;;;;;74.65;36.85;;;0.90;99.90;;;;;;5100889;27;20476;-76
2021/12/05 14:49:45;;;;;;;69.30;37.50;;;0.90;99.90;;;;;;5097274;27;20389;-75
2021/12/05 14:52:23;;;;;;;74.28;39.05;;;1.00;99.90;;;;;;5096908;27;20032;-76
2021/12/05 14:54:50;;;;;;;86.57;44.63;;;1.00;99.90;;;;;;5098115;27;20018;-75
2021/12/05 14:57:25;;;;;;;139.15;71.32;;;1.00;99.90;;;;;;5108991;27;20010;-76
2021/12/05 14:59:59;;;;;;;152.88;80.97;;;1.00;99.90;;;;;;5089150;27;20035;-75
2021/12/05 15:02:25;;;;;;;149.02;77.15;;;1.00;99.90;;;;;;5088168;27;20021;-76
2021/12/05 15:04:53;;;;;;;108.93;56.88;;;1.00;99.90;;;;;;5091910;27;20022;-75
2021/12/05 15:07:20;;;;;;;103.35;53.83;;;1.00;99.90;;;;;;5098811;27;20021;-75
2021/12/05 15:09:49;;;;;;;259.77;110.25;;;1.00;99.90;;;;;;5098575;27;20113;-75
2021/12/05 15:12:21;;;;;;;141.75;65.60;;;1.00;99.90;;;;;;5124251;27;20030;-75
2021/12/05 15:14:52;;;;;;;120.07;56.75;;;1.00;99.90;;;;;;5155685;27;20026;-75
2021/12/05 15:17:24;;;;;;;103.28;50.47;;;1.00;99.90;;;;;;5084166;27;20478;-75
2021/12/05 15:19:53;;;;;;;105.90;50.58;;;1.00;99.90;;;;;;5095368;27;20020;-76
2021/12/05 15:22:19;;;;;;;89.07;45.63;;;1.00;99.90;;;;;;5134280;27;20357;-76
2021/12/05 15:24:54;;;;;;;91.38;48.30;;;1.00;99.90;;;;;;5108473;27;20389;-76
2021/12/05 15:27:23;;;;;;;95.07;47.85;;;1.00;99.90;;;;;;5102764;27;20028;-76
2021/12/05 15:29:57;;;;;;;80.82;40.05;;;1.00;99.90;;;;;;5096324;27;20032;-76
2021/12/05 15:32:25;;;;;;;104.85;50.80;;;1.00;99.90;;;;;;5120665;27;20109;-74
2021/12/05 15:34:55;;;;;;;108.80;52.15;;;1.00;99.90;;;;;;5111066;27;20413;-75
2021/12/05 15:37:21;;;;;;;104.60;52.35;;;1.00;99.90;;;;;;5030741;28;20061;-75
2021/12/05 15:39:49;;;;;;;104.85;49.53;;;1.00;99.90;;;;;;5029500;28;20018;-75
2021/12/05 15:42:33;;;;;;;121.10;56.30;;;1.00;99.90;;;;;;5030215;27;20052;-75
2021/12/05 15:45:03;;;;;;;159.85;79.05;;;1.00;99.90;;;;;;5029243;28;20077;-75
2021/12/05 15:47:34;;;;;;;140.25;69.20;;;1.00;99.90;;;;;;5028403;28;20572;-75
2021/12/05 15:50:30;;;;;;;111.90;55.38;;;1.00;99.90;;;;;;5030625;28;20022;-75
2021/12/05 15:53:01;;;;;;;114.53;49.95;;;1.00;99.90;;;;;;5028829;28;20497;-75
2021/12/05 15:55:32;;;;;;;113.82;50.33;;;1.00;99.90;;;;;;5092542;27;20096;-76
2021/12/05 15:58:08;;;;;;;89.72;45.63;;;1.00;99.90;;;;;;5107403;27;20033;-76
2021/12/05 16:00:41;;;;;;;88.22;43.35;;;1.00;99.90;;;;;;5102915;27;20036;-75
2021/12/05 16:03:13;;;;;;;94.85;47.53;;;1.00;99.90;;;;;;5096702;27;20121;-76
2021/12/05 16:05:41;;;;;;;89.35;44.28;;;1.00;99.90;;;;;;5096728;27;20077;-75
2021/12/05 16:08:10;;;;;;;87.13;43.25;;;1.00;99.90;;;;;;5100778;27;20036;-75
2021/12/05 16:10:39;;;;;;;96.53;48.85;;;1.00;99.90;;;;;;5146277;27;20031;-76
2021/12/05 16:13:20;;;;;;;92.55;48.65;;;1.00;99.90;;;;;;5066987;28;20029;-75
2021/12/05 16:15:49;;;;;;;98.15;52.67;;;1.00;99.90;;;;;;5088742;27;20052;-75
2021/12/05 16:18:15;;;;;;;101.25;48.60;;;1.00;99.90;;;;;;5152904;27;20075;-75
2021/12/05 16:20:44;;;;;;;106.60;50.10;;;1.00;99.90;;;;;;5152081;27;20023;-75
2021/12/05 16:23:17;;;;;;;111.45;50.05;;;1.00;99.90;;;;;;5153346;27;20379;-75
2021/12/05 16:25:58;;;;;;;108.45;51.08;;;1.00;99.90;;;;;;5152383;27;20014;-75
2021/12/05 16:28:35;;;;;;;141.43;63.75;;;1.00;99.90;;;;;;5115942;27;20025;-75
2021/12/05 16:31:25;;;;;;;123.50;56.35;;;1.00;99.90;;;;;;5046315;28;20379;-76
2021/12/05 16:33:52;;;;;;;103.75;48.47;;;1.00;99.90;;;;;;5048343;28;20025;-75
2021/12/05 16:36:21;;;;;;;97.30;45.20;;;1.00;99.90;;;;;;5046939;28;20017;-75
2021/12/05 16:38:50;;;;;;;90.40;42.78;;;1.00;99.90;;;;;;5049152;28;20049;-75
2021/12/05 16:41:27;;;;;;;81.75;40.65;;;1.00;99.90;;;;;;5048837;28;20100;-75
2021/12/05 16:43:57;;;;;;;93.68;46.38;;;1.00;99.90;;;;;;5049348;28;20032;-75
2021/12/05 16:46:32;;;;;;;105.95;51.40;;;0.90;99.90;;;;;;5049319;28;20018;-75
2021/12/05 16:48:59;;;;;;;167.80;84.63;;;0.90;99.90;;;;;;5087293;27;20072;-75
2021/12/05 16:51:34;;;;;;;135.15;62.50;;;0.90;99.90;;;;;;5153672;27;20025;-75
2021/12/05 16:54:15;;;;;;;138.07;57.72;;;0.90;99.90;;;;;;5153683;27;20584;-75
2021/12/05 16:56:54;;;;;;;119.13;53.47;;;0.90;99.90;;;;;;5122732;27;20386;-75
2021/12/05 16:59:39;;;;;;;109.35;50.15;;;0.90;99.90;;;;;;5048913;28;20487;-75
2021/12/05 17:02:16;;;;;;;117.40;58.20;;;0.90;99.90;;;;;;5050249;28;20021;-75
2021/12/05 17:04:59;;;;;;;125.65;58.28;;;0.80;99.90;;;;;;5048673;28;20383;-75
2021/12/05 17:08:10;;;;;;;103.30;52.15;;;0.80;99.90;;;;;;5050008;28;20029;-75
2021/12/05 17:10:56;;;;;;;107.25;48.03;;;0.80;99.90;;;;;;5022183;28;20037;-75
2021/12/05 17:13:43;;;;;;;216.95;100.85;;;0.80;99.90;;;;;;5049987;28;20446;-75
2021/12/05 17:16:15;;;;;;;164.10;77.50;;;0.70;99.90;;;;;;5048642;28;20025;-75
2021/12/05 17:19:06;;;;;;;169.45;81.25;;;0.70;99.90;;;;;;5134664;27;20026;-75
2021/12/05 17:21:36;;;;;;;166.55;81.30;;;0.70;99.90;;;;;;5151824;27;20019;-75
2021/12/05 17:24:06;;;;;;;156.38;78.70;;;0.60;99.90;;;;;;5154373;27;20044;-76
2021/12/05 17:26:41;;;;;;;162.45;74.43;;;0.60;99.90;;;;;;5142990;27;20030;-75
2021/12/05 17:29:19;;;;;;;151.82;72.72;;;0.60;99.90;;;;;;5132630;27;20445;-76
2021/12/05 17:31:52;;;;;;;120.93;63.30;;;0.60;99.90;;;;;;5069799;27;20030;-74
2021/12/05 17:34:30;;;;;;;122.55;64.55;;;0.60;99.90;;;;;;5050474;28;20627;-75
2021/12/05 17:37:01;;;;;;;125.25;60.85;;;0.60;99.90;;;;;;5054459;27;20041;-75
2021/12/05 17:39:36;;;;;;;142.90;68.45;;;0.60;99.90;;;;;;5102890;28;20051;-75
2021/12/05 17:42:07;;;;;;;141.38;71.40;;;0.60;99.90;;;;;;5042743;28;20048;-75
2021/12/05 17:44:33;;;;;;;152.70;68.15;;;0.60;99.90;;;;;;5047883;27;20033;-76
2021/12/05 17:47:03;;;;;;;142.38;68.88;;;0.70;99.90;;;;;;5058693;27;20109;-75
2021/12/05 17:49:32;;;;;;;126.93;61.30;;;0.70;99.90;;;;;;5065954;28;20490;-74
2021/12/05 17:51:59;;;;;;;151.00;71.15;;;0.70;99.90;;;;;;5048103;27;20059;-75
2021/12/05 17:54:33;;;;;;;126.72;61.17;;;0.70;99.90;;;;;;5080983;27;20018;-75
2021/12/05 17:57:07;;;;;;;122.45;59.00;;;0.70;99.90;;;;;;5064326;27;20120;-75
2021/12/05 18:02:48;;;;;;;125.72;61.38;;;0.80;99.90;;;;;;5053073;27;20452;-75
2021/12/05 18:05:23;;;;;;;126.15;63.78;;;0.80;99.90;;;;;;5055557;27;20084;-75
2021/12/05 18:07:52;;;;;;;131.38;62.10;;;0.90;99.90;;;;;;5046465;27;20021;-75
2021/12/05 18:10:20;;;;;;;140.13;65.85;;;0.90;99.90;;;;;;5045075;28;20021;-75
2021/12/05 18:12:48;;;;;;;137.93;67.45;;;0.90;99.90;;;;;;5045756;27;20089;-74
2021/12/05 18:15:21;;;;;;;135.70;68.40;;;0.90;99.90;;;;;;5142166;27;20025;-75
2021/12/05 18:17:47;;;;;;;146.25;68.38;;;0.90;99.90;;;;;;5152588;27;20357;-75